createdAt,value
2023-04-05T00:18:22.293Z,19.3
2023-04-05T00:48:22.328Z,19.3
2023-04-05T01:18:22.032Z,19.3
2023-04-05T01:48:22.392Z,19.1
2023-04-05T02:18:22.261Z,19.0
2023-04-05T02:48:22.205Z,19.0
2023-04-05T03:18:22.197Z,19.0
2023-04-05T03:48:22.193Z,19.1
2023-04-05T04:18:22.194Z,19.4
2023-04-05T04:48:22.199Z,19.5
2023-04-05T05:18:22.204Z,19.7
2023-04-05T05:48:22.209Z,20.0
2023-04-05T06:18:22.217Z,20.1
2023-04-05T06:48:22.224Z,20.1
2023-04-05T07:18:22.206Z,20.3
2023-04-05T07:48:21.917Z,20.3
2023-04-05T08:18:22.213Z,20.4
2023-04-05T08:48:22.466Z,20.3
2023-04-05T09:18:22.200Z,20.3
2023-04-05T09:48:22.190Z,20.3
2023-04-05T10:18:22.194Z,20.2
2023-04-05T10:48:22.166Z,20.3
2023-04-05T11:18:22.202Z,20.3
2023-04-05T11:48:22.211Z,20.3
2023-04-05T12:18:22.144Z,20.3
2023-04-05T12:48:22.184Z,20.3
2023-04-05T13:18:22.166Z,20.4
2023-04-05T13:48:22.187Z,20.5
2023-04-05T14:18:22.194Z,20.6
2023-04-05T14:48:22.172Z,20.8
2023-04-05T15:18:22.168Z,20.6
2023-04-05T15:48:22.155Z,20.6
2023-04-05T16:18:22.142Z,20.6
2023-04-05T16:48:22.170Z,20.5
2023-04-05T17:18:22.120Z,20.5
2023-04-05T17:48:22.131Z,20.5
2023-04-05T18:18:22.149Z,20.5
2023-04-05T18:48:22.141Z,20.5
2023-04-05T19:18:22.125Z,20.3
2023-04-05T19:48:22.134Z,20.2
2023-04-05T20:18:22.128Z,20.1
2023-04-05T20:48:22.106Z,20.0
2023-04-05T21:18:22.108Z,19.8
2023-04-05T21:48:22.136Z,19.7
2023-04-05T22:18:22.110Z,19.6
2023-04-05T22:48:22.130Z,19.5
2023-04-05T23:18:22.109Z,19.4
2023-04-05T23:48:22.100Z,19.3
